Time;durP1;ratioP1;P1;durP2;ratioP2;P2;SDS_P1;SDS_P2;PMS_P1;PMS_P2;Temp;Humidity;BMP_temperature;BMP_pressure;BME280_temperature;BME280_humidity;BME280_pressure;Samples;Min_cycle;Max_cycle;Signal;HPM_P1;HPM_P2
2021/09/12 00:01:26;;;;;;;22.07;12.37;;;;;;;10.04;70.53;97353.66;1839507;78;25237;-96
2021/09/12 00:03:52;;;;;;;19.00;11.93;;;;;;;10.00;70.54;97359.18;1839051;78;25504;-78
2021/09/12 00:06:19;;;;;;;18.35;12.25;;;;;;;10.01;70.50;97363.02;1838728;78;25282;-96
2021/09/12 00:08:46;;;;;;;21.00;11.88;;;;;;;10.02;70.49;97359.80;1839380;78;27394;-80
2021/09/12 00:11:12;;;;;;;17.10;12.03;;;;;;;10.04;70.51;97367.14;1839516;77;25956;-88
2021/09/12 00:13:41;;;;;;;18.07;11.18;;;;;;;10.06;70.54;97363.72;1815265;78;25518;-93
2021/09/12 00:16:07;;;;;;;18.67;11.73;;;;;;;9.99;70.49;97360.22;1824474;78;25894;-96
2021/09/12 00:18:34;;;;;;;21.33;12.25;;;;;;;9.87;70.61;97355.14;1805431;78;25654;-95
2021/09/12 00:21:01;;;;;;;23.00;11.48;;;;;;;9.81;70.85;97351.91;1838813;77;27397;-90
2021/09/12 00:23:27;;;;;;;22.48;12.00;;;;;;;9.77;71.00;97355.56;1847668;77;25230;-85
2021/09/12 00:25:54;;;;;;;18.25;11.45;;;;;;;9.74;71.18;97355.45;1847977;77;25273;-87
2021/09/12 00:28:20;;;;;;;19.57;11.43;;;;;;;9.75;71.26;97355.77;1848502;77;25723;-96
2021/09/12 00:30:47;;;;;;;18.92;11.25;;;;;;;9.78;71.37;97359.09;1847307;77;25405;-96
2021/09/12 00:33:13;;;;;;;18.57;10.98;;;;;;;9.81;71.16;97363.52;1846679;77;27569;-92
2021/09/12 00:35:40;;;;;;;18.55;10.43;;;;;;;9.75;71.00;97361.16;1834098;77;25607;-96
2021/09/12 00:38:08;;;;;;;20.50;11.03;;;;;;;9.66;70.99;97364.27;1813671;77;25934;-90
2021/09/12 00:40:35;;;;;;;17.07;9.75;;;;;;;9.65;71.20;97366.65;1812948;77;25911;-92
2021/09/12 00:43:02;;;;;;;16.27;10.40;;;;;;;9.67;71.26;97366.73;1833889;77;25284;-96
2021/09/12 00:45:29;;;;;;;16.50;9.58;;;;;;;9.66;71.24;97366.42;1823352;77;28258;-92
2021/09/12 00:47:56;;;;;;;15.05;10.15;;;;;;;9.65;71.27;97362.09;1847364;77;25429;-93
2021/09/12 00:50:23;;;;;;;17.70;9.75;;;;;;;9.66;71.23;97356.98;1824262;77;25573;-88
2021/09/12 00:52:52;;;;;;;19.87;10.63;;;;;;;9.65;71.26;97356.70;1847865;77;25917;-96
2021/09/12 00:55:19;;;;;;;16.17;10.28;;;;;;;9.65;71.39;97355.87;1849473;77;25192;-93
2021/09/12 00:57:46;;;;;;;20.20;11.43;;;;;;;9.65;71.42;97355.87;1848227;77;27495;-94
2021/09/12 01:00:14;;;;;;;16.15;9.40;;;;;;;9.65;71.44;97360.74;1847877;77;25760;-96
2021/09/12 01:02:41;;;;;;;20.05;10.48;;;;;;;9.66;71.45;97352.94;1848727;77;25226;-96
2021/09/12 01:05:10;;;;;;;19.05;10.10;;;;;;;9.67;71.43;97347.03;1821788;77;25599;-96
2021/09/12 01:07:41;;;;;;;14.63;9.48;;;;;;;9.63;71.37;97346.64;1848666;77;25225;-90
2021/09/12 01:10:10;;;;;;;17.15;9.43;;;;;;;9.58;71.31;97350.45;1841732;77;27517;-94
2021/09/12 01:12:36;;;;;;;16.65;10.15;;;;;;;9.54;71.33;97349.20;1845024;77;25653;-95
2021/09/12 01:15:06;;;;;;;17.48;10.80;;;;;;;9.51;71.36;97350.98;1841868;77;25257;-96
2021/09/12 01:17:33;;;;;;;14.85;9.60;;;;;;;9.49;71.46;97353.56;1827963;78;25875;-88
2021/09/12 01:19:59;;;;;;;13.03;9.18;;;;;;;9.38;71.37;97350.45;1831241;78;25242;-88
2021/09/12 01:22:26;;;;;;;14.47;9.35;;;;;;;9.33;71.52;97353.43;1831491;77;27454;-94
2021/09/12 01:24:53;;;;;;;17.10;9.88;;;;;;;9.33;71.70;97348.87;1831175;78;25464;-95
2021/09/12 01:27:19;;;;;;;15.98;10.95;;;;;;;9.34;71.75;97345.66;1827386;78;25258;-96
2021/09/12 01:29:47;;;;;;;14.68;10.68;;;;;;;9.37;71.83;97346.09;1829579;78;25937;-93
2021/09/12 01:32:13;;;;;;;15.55;9.73;;;;;;;9.38;71.86;97342.37;1830759;78;25190;-83
2021/09/12 01:34:40;;;;;;;18.85;11.08;;;;;;;9.39;71.87;97344.55;1831556;77;27567;-95
2021/09/12 01:37:07;;;;;;;17.75;10.63;;;;;;;9.36;71.84;97347.64;1830546;78;25305;-95
2021/09/12 01:39:33;;;;;;;19.05;11.08;;;;;;;9.26;71.80;97345.87;1830795;78;25562;-93
2021/09/12 01:42:00;;;;;;;16.75;10.55;;;;;;;9.21;71.89;97350.51;1825776;77;25912;-95
2021/09/12 01:44:26;;;;;;;15.75;10.15;;;;;;;9.12;71.95;97346.35;1824961;77;25265;-96
2021/09/12 01:46:55;;;;;;;15.78;9.95;;;;;;;9.12;72.19;97346.87;1845963;77;27402;-96
2021/09/12 01:49:23;;;;;;;14.50;9.45;;;;;;;9.14;72.21;97347.50;1844714;77;26341;-92
2021/09/12 01:51:52;;;;;;;14.38;9.20;;;;;;;9.16;72.21;97349.48;1847324;77;25668;-90
2021/09/12 01:54:19;;;;;;;17.05;9.68;;;;;;;9.17;72.29;97347.93;1824371;77;25728;-95
2021/09/12 01:56:46;;;;;;;13.88;9.30;;;;;;;9.20;72.33;97343.97;1834901;77;25242;-88
2021/09/12 01:59:12;;;;;;;15.10;9.48;;;;;;;9.22;72.33;97343.26;1837030;77;27534;-92
2021/09/12 02:01:39;;;;;;;12.40;9.10;;;;;;;9.24;72.24;97346.58;1824009;77;25325;-84
2021/09/12 02:04:05;;;;;;;14.83;9.40;;;;;;;9.25;72.13;97341.52;1849883;77;25189;-91
2021/09/12 02:06:32;;;;;;;13.85;8.55;;;;;;;9.23;72.15;97339.53;1825737;77;25699;-94
2021/09/12 02:08:58;;;;;;;20.68;8.93;;;;;;;9.22;72.26;97340.05;1849813;77;25333;-89
2021/09/12 02:11:25;;;;;;;14.05;9.40;;;;;;;9.22;72.32;97345.95;1848637;77;27439;-92
2021/09/12 02:13:53;;;;;;;15.32;9.68;;;;;;;9.22;72.35;97342.74;1834953;77;25219;-93
2021/09/12 02:16:21;;;;;;;15.30;9.28;;;;;;;9.23;72.42;97346.27;1838124;77;25769;-81
2021/09/12 02:18:48;;;;;;;13.95;9.20;;;;;;;9.21;72.48;97345.64;1824287;77;25837;-92
2021/09/12 02:21:14;;;;;;;14.10;9.28;;;;;;;9.19;72.47;97349.05;1823970;77;25257;-93
2021/09/12 02:23:41;;;;;;;14.90;10.00;;;;;;;9.14;72.49;97348.84;1822626;77;27251;-93
2021/09/12 02:26:08;;;;;;;14.38;9.78;;;;;;;9.09;72.63;97344.05;1820995;78;25212;-96
2021/09/12 02:28:34;;;;;;;15.35;9.03;;;;;;;9.07;72.66;97343.42;1808223;78;25543;-96
2021/09/12 02:31:01;;;;;;;15.25;9.35;;;;;;;9.05;72.73;97343.34;1837309;78;25834;-95
2021/09/12 02:33:27;;;;;;;12.88;8.48;;;;;;;9.05;72.79;97346.86;1837363;78;25225;-96
2021/09/12 02:35:54;;;;;;;12.90;8.28;;;;;;;9.03;72.83;97348.92;1837857;78;27435;-94
2021/09/12 02:38:21;;;;;;;14.10;8.43;;;;;;;9.02;72.91;97342.70;1839985;78;25281;-91
2021/09/12 02:40:47;;;;;;;12.25;8.70;;;;;;;9.03;73.02;97344.38;1839484;78;25280;-92
2021/09/12 02:43:14;;;;;;;11.63;7.60;;;;;;;9.06;73.07;97340.97;1840226;78;25706;-85
2021/09/12 02:45:40;;;;;;;13.08;9.20;;;;;;;9.08;73.14;97349.13;1837467;78;25520;-90
2021/09/12 02:48:07;;;;;;;11.88;8.63;;;;;;;9.11;73.19;97343.86;1840564;78;27383;-83
2021/09/12 02:50:34;;;;;;;12.95;8.50;;;;;;;9.13;73.24;97343.97;1839007;78;25218;-91
2021/09/12 02:53:00;;;;;;;13.40;8.60;;;;;;;9.16;73.32;97349.48;1818632;78;25281;-96
2021/09/12 02:55:27;;;;;;;15.83;9.18;;;;;;;9.18;73.40;97343.34;1838863;78;26342;-96
2021/09/12 02:57:53;;;;;;;11.38;8.30;;;;;;;9.19;73.53;97349.05;1815455;78;25749;-88
2021/09/12 03:00:20;;;;;;;15.93;9.83;;;;;;;9.19;73.63;97350.39;1839950;78;27565;-89
2021/09/12 03:02:47;;;;;;;11.18;8.28;;;;;;;9.22;73.70;97349.99;1839539;78;25260;-94
2021/09/12 03:05:13;;;;;;;12.40;9.20;;;;;;;9.20;73.74;97348.02;1839438;78;25206;-96
2021/09/12 03:07:40;;;;;;;15.45;8.88;;;;;;;9.23;73.81;97351.14;1816001;78;25678;-96
2021/09/12 03:10:07;;;;;;;14.73;9.18;;;;;;;9.26;73.79;97345.87;1839574;78;25686;-86
2021/09/12 03:12:34;;;;;;;14.63;10.45;;;;;;;9.29;73.81;97345.47;1839830;78;27408;-89
2021/09/12 03:15:00;;;;;;;22.42;12.82;;;;;;;9.32;73.83;97349.91;1830255;78;25246;-96
2021/09/12 03:17:27;;;;;;;20.82;12.47;;;;;;;9.32;73.75;97348.55;1806926;79;25773;-95
2021/09/12 03:19:53;;;;;;;18.37;12.28;;;;;;;9.33;73.77;97346.69;1811741;78;25772;-96
2021/09/12 03:22:20;;;;;;;20.75;11.85;;;;;;;9.33;73.80;97350.73;1820824;77;25313;-96
2021/09/12 03:24:47;;;;;;;18.62;11.57;;;;;;;9.34;73.79;97351.05;1838204;77;27458;-95
2021/09/12 03:27:13;;;;;;;18.17;10.82;;;;;;;9.34;73.84;97354.58;1846951;77;25264;-93
2021/09/12 03:29:40;;;;;;;15.72;10.58;;;;;;;9.34;73.83;97352.40;1846868;77;25810;-96
2021/09/12 03:32:07;;;;;;;13.70;10.35;;;;;;;9.34;73.90;97356.44;1823458;77;25877;-85
2021/09/12 03:34:34;;;;;;;17.67;11.97;;;;;;;9.36;73.87;97351.68;1847515;77;25676;-96
2021/09/12 03:37:00;;;;;;;15.45;11.40;;;;;;;9.32;73.87;97351.25;1846441;77;27363;-96
2021/09/12 03:39:27;;;;;;;18.95;11.05;;;;;;;9.29;73.94;97348.99;1846427;77;25270;-96
2021/09/12 03:41:53;;;;;;;17.00;11.20;;;;;;;9.30;73.99;97345.75;1846673;77;25755;-96
2021/09/12 03:44:20;;;;;;;18.42;11.88;;;;;;;9.32;73.95;97354.46;1845929;77;25830;-96
2021/09/12 03:46:47;;;;;;;19.60;12.30;;;;;;;9.31;73.93;97359.53;1813021;77;25747;-91
2021/09/12 03:49:13;;;;;;;19.73;12.78;;;;;;;9.25;74.01;97356.33;1845773;77;27447;-95
2021/09/12 03:51:40;;;;;;;21.45;13.45;;;;;;;9.26;74.09;97355.30;1819980;77;25805;-96
2021/09/12 03:54:07;;;;;;;23.75;13.03;;;;;;;9.26;74.18;97356.64;1838143;77;26309;-92
2021/09/12 03:56:34;;;;;;;22.50;12.95;;;;;;;9.26;74.12;97354.78;1846010;77;25736;-96
2021/09/12 03:59:01;;;;;;;21.30;14.07;;;;;;;9.25;74.15;97361.20;1846439;77;25826;-96
2021/09/12 04:01:27;;;;;;;20.90;13.38;;;;;;;9.27;74.20;97359.66;1844860;76;27333;-96
2021/09/12 04:03:54;;;;;;;20.50;12.60;;;;;;;9.24;74.26;97353.31;1846332;77;25626;-96
2021/09/12 04:06:20;;;;;;;22.60;13.58;;;;;;;9.21;74.19;97355.06;1847061;77;25202;-92
2021/09/12 04:08:47;;;;;;;23.60;13.38;;;;;;;9.20;74.25;97354.23;1846138;77;25668;-91
2021/09/12 04:11:14;;;;;;;24.35;12.82;;;;;;;9.21;74.25;97353.72;1811867;77;25266;-95
2021/09/12 04:13:40;;;;;;;18.70;11.70;;;;;;;9.20;74.30;97350.70;1824298;77;27518;-96
2021/09/12 04:16:07;;;;;;;20.08;11.95;;;;;;;9.17;74.30;97351.14;1830682;77;26410;-94
2021/09/12 04:18:33;;;;;;;21.40;13.08;;;;;;;9.14;74.38;97354.23;1797546;77;25819;-93
2021/09/12 04:21:00;;;;;;;20.08;11.83;;;;;;;9.11;74.53;97347.89;1827998;77;25895;-95
2021/09/12 04:23:26;;;;;;;20.50;12.15;;;;;;;9.13;74.60;97352.56;1817670;77;25787;-95
2021/09/12 04:25:53;;;;;;;20.80;13.30;;;;;;;9.15;74.65;97349.16;1841454;77;27454;-96
2021/09/12 04:28:20;;;;;;;23.42;13.93;;;;;;;9.15;74.62;97353.20;1833562;77;26283;-93
2021/09/12 04:30:46;;;;;;;23.52;13.72;;;;;;;9.18;74.67;97356.81;1816560;77;25744;-95
2021/09/12 04:33:13;;;;;;;21.30;13.35;;;;;;;9.21;74.70;97362.63;1841767;77;26190;-94
2021/09/12 04:35:40;;;;;;;25.88;13.65;;;;;;;9.20;74.68;97365.52;1842209;77;25697;-96
2021/09/12 04:38:06;;;;;;;20.55;12.43;;;;;;;9.21;74.69;97365.84;1842188;77;27521;-95
2021/09/12 04:40:33;;;;;;;23.07;12.95;;;;;;;9.22;74.67;97364.80;1809091;77;26343;-96
2021/09/12 04:42:59;;;;;;;18.27;10.85;;;;;;;9.20;74.71;97356.09;1817044;77;25204;-94
2021/09/12 04:45:26;;;;;;;18.00;10.43;;;;;;;9.21;74.77;97365.84;1805552;77;25888;-92
2021/09/12 04:47:53;;;;;;;18.67;11.57;;;;;;;9.20;74.81;97358.78;1840501;77;26282;-95
2021/09/12 04:50:19;;;;;;;21.45;14.70;;;;;;;9.24;74.84;97373.52;1837768;77;27452;-96
2021/09/12 04:52:47;;;;;;;22.90;14.25;;;;;;;9.21;74.99;97363.97;1804658;77;25225;-96
2021/09/12 04:55:13;;;;;;;27.75;15.13;;;;;;;9.20;74.98;97366.35;1826304;77;25730;-95
2021/09/12 04:57:40;;;;;;;30.15;17.50;;;;;;;9.23;75.14;97363.77;1831941;77;25757;-91
2021/09/12 05:00:08;;;;;;;26.60;17.40;;;;;;;9.23;75.13;97357.88;1816194;77;25697;-94
2021/09/12 05:02:35;;;;;;;27.82;16.75;;;;;;;9.27;75.20;97361.83;1842467;77;27363;-94
2021/09/12 05:05:01;;;;;;;28.00;17.50;;;;;;;9.31;75.33;97359.53;1822264;77;25614;-96
2021/09/12 05:07:28;;;;;;;22.82;14.87;;;;;;;9.33;75.32;97354.78;1842702;77;25763;-96
2021/09/12 05:09:54;;;;;;;21.70;14.98;;;;;;;9.36;75.43;97359.77;1822097;77;25890;-96
2021/09/12 05:12:21;;;;;;;24.05;14.95;;;;;;;9.38;75.39;97359.05;1844914;77;25236;-96
2021/09/12 05:14:48;;;;;;;22.93;13.40;;;;;;;9.44;75.44;97358.21;1810459;77;27329;-94
2021/09/12 05:17:14;;;;;;;24.15;12.82;;;;;;;9.52;75.42;97362.59;1817710;77;25685;-94
2021/09/12 05:19:41;;;;;;;17.15;11.83;;;;;;;9.58;75.51;97369.84;1841394;77;25794;-96
2021/09/12 05:22:07;;;;;;;15.08;9.90;;;;;;;9.63;75.63;97369.55;1841111;77;25732;-92
2021/09/12 05:24:34;;;;;;;14.07;10.30;;;;;;;9.71;75.76;97367.98;1807908;77;25934;-94
2021/09/12 05:27:01;;;;;;;13.93;10.20;;;;;;;9.79;75.78;97358.85;1841260;76;27376;-95
2021/09/12 05:29:27;;;;;;;16.40;10.88;;;;;;;9.84;75.85;97360.94;1841272;77;25698;-95
2021/09/12 05:31:54;;;;;;;17.02;12.82;;;;;;;9.90;75.80;97369.56;1841298;77;25411;-94
2021/09/12 05:34:20;;;;;;;18.60;13.22;;;;;;;9.97;75.79;97364.98;1815727;77;25830;-94
2021/09/12 05:36:47;;;;;;;18.00;12.40;;;;;;;10.03;75.81;97358.22;1834163;77;25739;-95
2021/09/12 05:39:14;;;;;;;18.82;12.05;;;;;;;10.11;75.85;97359.89;1841947;77;27312;-96
2021/09/12 05:41:41;;;;;;;17.77;12.25;;;;;;;10.18;75.99;97353.12;1839723;77;26010;-94
2021/09/12 05:44:07;;;;;;;16.62;11.90;;;;;;;10.26;75.92;97354.30;1823350;77;26401;-94
2021/09/12 05:46:35;;;;;;;17.07;11.38;;;;;;;10.34;75.83;97352.20;1825681;77;26624;-96
2021/09/12 05:49:03;;;;;;;17.27;11.93;;;;;;;10.41;75.95;97350.30;1841548;77;25616;-95
2021/09/12 05:51:31;;;;;;;14.47;10.60;;;;;;;10.46;76.01;97343.77;1828821;77;28199;-93
2021/09/12 05:53:57;;;;;;;16.80;10.45;;;;;;;10.58;76.08;97349.34;1832312;77;25222;-95
2021/09/12 05:56:24;;;;;;;13.43;10.05;;;;;;;10.67;76.02;97353.97;1841442;77;25702;-92
2021/09/12 05:58:50;;;;;;;17.05;9.88;;;;;;;10.74;76.11;97353.44;1811622;77;25895;-91
2021/09/12 06:01:19;;;;;;;11.53;9.55;;;;;;;10.80;76.15;97358.80;1838738;77;25233;-92
2021/09/12 06:03:46;;;;;;;12.10;9.70;;;;;;;10.87;76.19;97351.20;1842479;77;29134;-96
2021/09/12 06:06:12;;;;;;;14.03;10.32;;;;;;;10.94;76.20;97357.40;1841720;77;25784;-91
2021/09/12 06:08:39;;;;;;;12.03;10.43;;;;;;;11.00;76.22;97350.60;1842721;76;25862;-96
2021/09/12 06:11:09;;;;;;;14.30;10.23;;;;;;;11.08;76.25;97350.38;1842116;77;25614;-95
2021/09/12 06:13:34;;;;;;;17.02;10.15;;;;;;;11.16;76.26;97354.16;1841058;77;25666;-95
2021/09/12 06:16:01;;;;;;;13.10;9.58;;;;;;;11.25;76.28;97355.25;1841714;77;27472;-95
2021/09/12 06:18:27;;;;;;;14.05;10.30;;;;;;;11.32;76.42;97352.00;1842332;77;25711;-96
2021/09/12 06:20:54;;;;;;;15.20;9.43;;;;;;;11.39;76.38;97351.42;1841542;77;25619;-95
2021/09/12 06:23:20;;;;;;;12.37;9.63;;;;;;;11.48;76.34;97347.41;1835033;77;25759;-96
2021/09/12 06:25:47;;;;;;;10.98;9.38;;;;;;;11.58;76.24;97348.30;1797648;77;25680;-96
2021/09/12 06:28:14;;;;;;;10.28;8.85;;;;;;;11.68;76.22;97355.40;1803764;77;27287;-95
2021/09/12 06:30:40;;;;;;;13.35;9.05;;;;;;;11.77;76.26;97349.53;1844655;77;25724;-94
2021/09/12 06:33:07;;;;;;;11.33;8.38;;;;;;;11.89;76.18;97351.81;1844332;77;25710;-94
2021/09/12 06:35:34;;;;;;;15.15;9.95;;;;;;;11.98;76.09;97340.71;1844331;77;25890;-92
2021/09/12 06:38:00;;;;;;;13.28;10.03;;;;;;;12.08;76.17;97338.33;1844438;77;25707;-94
2021/09/12 06:40:30;;;;;;;13.75;10.10;;;;;;;12.17;76.18;97335.66;1836751;77;27512;-88
2021/09/12 06:42:56;;;;;;;16.93;9.65;;;;;;;12.26;76.22;97332.96;1830573;77;25855;-96
2021/09/12 06:45:23;;;;;;;13.03;9.38;;;;;;;12.37;76.08;97332.22;1847109;77;25229;-90
2021/09/12 06:47:49;;;;;;;13.60;9.55;;;;;;;12.49;76.09;97329.59;1822362;77;25723;-95
2021/09/12 06:50:16;;;;;;;13.30;9.53;;;;;;;12.62;75.88;97335.69;1802194;77;25729;-95
2021/09/12 06:52:42;;;;;;;14.50;9.13;;;;;;;12.76;75.86;97333.66;1845148;77;27602;-95
2021/09/12 06:55:10;;;;;;;13.28;9.30;;;;;;;12.90;75.62;97334.33;1844193;77;25664;-95
2021/09/12 06:57:37;;;;;;;15.45;9.18;;;;;;;13.02;75.33;97334.38;1844815;77;25711;-94
2021/09/12 07:00:06;;;;;;;13.05;10.03;;;;;;;13.13;75.28;97322.77;1844538;77;25905;-95
2021/09/12 07:02:37;;;;;;;15.53;9.90;;;;;;;13.24;75.13;97325.55;1842208;77;25636;-93
2021/09/12 07:05:07;;;;;;;11.25;9.20;;;;;;;13.38;75.10;97328.08;1816449;77;27363;-95
2021/09/12 07:07:34;;;;;;;13.98;8.85;;;;;;;13.53;75.09;97329.81;1844444;77;25716;-95
2021/09/12 07:10:02;;;;;;;11.70;8.73;;;;;;;13.67;74.96;97325.31;1844572;77;25874;-95
2021/09/12 07:12:28;;;;;;;10.63;8.63;;;;;;;13.82;74.85;97324.88;1814248;77;25777;-94
2021/09/12 07:14:55;;;;;;;12.00;9.10;;;;;;;13.96;74.61;97325.48;1842296;77;25226;-95
2021/09/12 07:17:21;;;;;;;11.40;8.23;;;;;;;14.11;74.35;97325.03;1818588;77;27494;-95
2021/09/12 07:19:48;;;;;;;12.90;8.75;;;;;;;14.26;74.27;97325.36;1804510;77;25729;-90
2021/09/12 07:22:15;;;;;;;11.00;8.60;;;;;;;14.43;74.14;97324.16;1821727;77;25707;-89
2021/09/12 07:24:41;;;;;;;11.45;8.28;;;;;;;14.61;73.95;97332.97;1797137;78;26591;-90
2021/09/12 07:27:08;;;;;;;10.93;7.83;;;;;;;14.81;73.73;97333.13;1830095;78;25309;-90
2021/09/12 07:29:35;;;;;;;15.58;8.40;;;;;;;15.05;73.48;97333.36;1830019;78;27582;-92
2021/09/12 07:32:01;;;;;;;11.60;7.95;;;;;;;15.31;73.18;97335.52;1830155;78;25770;-91
2021/09/12 07:34:28;;;;;;;10.48;7.80;;;;;;;15.67;72.84;97337.55;1830414;78;25815;-92
2021/09/12 07:36:54;;;;;;;11.30;7.67;;;;;;;16.06;72.48;97333.84;1807348;78;25681;-92
2021/09/12 07:39:21;;;;;;;10.95;7.47;;;;;;;16.49;71.97;97330.97;1813946;78;25222;-90
2021/09/12 07:41:48;;;;;;;10.95;7.65;;;;;;;16.89;71.50;97327.47;1824219;78;27412;-90
2021/09/12 07:44:14;;;;;;;14.30;8.53;;;;;;;17.31;70.93;97328.77;1816607;77;25751;-92
2021/09/12 07:46:41;;;;;;;11.18;8.20;;;;;;;17.70;70.33;97332.21;1798115;78;25233;-87
2021/09/12 07:49:07;;;;;;;9.78;7.50;;;;;;;18.01;69.70;97328.66;1819634;78;26411;-92
2021/09/12 07:51:34;;;;;;;11.97;7.85;;;;;;;18.35;69.15;97328.64;1818276;78;25697;-93
2021/09/12 07:54:00;;;;;;;12.20;7.83;;;;;;;18.67;68.44;97325.89;1830240;77;27410;-91
2021/09/12 07:56:27;;;;;;;13.10;7.62;;;;;;;18.96;67.95;97330.39;1830167;77;25713;-89
2021/09/12 07:58:54;;;;;;;11.12;8.00;;;;;;;19.30;67.46;97330.83;1811288;78;25802;-92
2021/09/12 08:01:20;;;;;;;11.97;7.55;;;;;;;19.65;66.65;97330.12;1823561;78;26420;-87
2021/09/12 08:03:47;;;;;;;10.28;7.53;;;;;;;19.98;65.96;97327.41;1802974;78;25745;-90
2021/09/12 08:06:13;;;;;;;10.15;7.80;;;;;;;20.31;65.26;97324.66;1823675;78;27504;-89
2021/09/12 08:08:40;;;;;;;11.55;7.80;;;;;;;20.64;64.54;97326.58;1830330;78;25786;-89
2021/09/12 08:11:06;;;;;;;9.85;7.10;;;;;;;20.94;63.98;97323.73;1830222;78;25253;-87
2021/09/12 08:13:33;;;;;;;11.08;7.97;;;;;;;21.18;63.44;97310.20;1830519;77;25786;-90
2021/09/12 08:16:01;;;;;;;12.23;8.00;;;;;;;21.56;62.89;97321.02;1810106;78;25718;-90
2021/09/12 08:18:27;;;;;;;10.78;7.42;;;;;;;21.85;62.29;97326.06;1828538;78;28423;-92
2021/09/12 08:20:54;;;;;;;13.95;7.78;;;;;;;22.16;61.78;97318.97;1826151;78;25683;-94
2021/09/12 08:23:21;;;;;;;10.13;7.20;;;;;;;22.46;60.70;97324.19;1815478;77;25882;-90
2021/09/12 08:25:49;;;;;;;12.82;7.80;;;;;;;22.57;59.83;97323.01;1821108;77;25796;-94
2021/09/12 08:28:16;;;;;;;7.62;6.80;;;;;;;22.81;60.28;97325.00;1803623;77;25772;-92
2021/09/12 08:30:42;;;;;;;10.75;6.87;;;;;;;23.09;59.82;97317.22;1822643;77;27291;-86
2021/09/12 08:33:14;;;;;;;12.05;6.80;;;;;;;23.38;59.59;97316.31;1830443;77;25780;-90
2021/09/12 08:35:42;;;;;;;10.88;6.92;;;;;;;23.70;58.61;97312.30;1793670;77;25282;-91
2021/09/12 08:38:10;;;;;;;12.93;7.00;;;;;;;23.94;57.84;97315.80;1817997;77;26412;-91
2021/09/12 08:40:36;;;;;;;7.80;6.67;;;;;;;24.17;57.56;97312.67;1841106;77;25797;-93
2021/09/12 08:43:06;;;;;;;10.65;7.15;;;;;;;24.36;57.50;97311.30;1807686;76;27335;-90
2021/09/12 08:45:33;;;;;;;8.45;6.83;;;;;;;24.50;56.59;97303.06;1823454;77;25902;-89
2021/09/12 08:48:00;;;;;;;8.38;7.10;;;;;;;24.46;55.72;97305.59;1841027;77;25664;-92
2021/09/12 08:50:27;;;;;;;10.50;7.20;;;;;;;24.56;56.01;97304.03;1841133;77;25764;-91
2021/09/12 08:52:54;;;;;;;13.40;7.40;;;;;;;24.72;55.40;97304.02;1808002;77;25746;-91
2021/09/12 08:55:20;;;;;;;10.72;6.97;;;;;;;24.83;55.17;97298.30;1813095;77;27422;-89
2021/09/12 08:57:49;;;;;;;10.55;7.00;;;;;;;24.97;54.77;97303.30;1836138;77;25638;-90
2021/09/12 09:00:25;;;;;;;10.18;6.70;;;;;;;25.05;54.22;97299.81;1841020;77;25750;-90
2021/09/12 09:03:01;;;;;;;10.63;7.00;;;;;;;24.96;53.86;97297.52;1828520;77;25629;-91
2021/09/12 09:05:35;;;;;;;7.60;6.37;;;;;;;25.00;53.99;97295.76;1839344;77;25819;-91
2021/09/12 09:08:14;;;;;;;10.08;6.85;;;;;;;25.11;53.98;97291.70;1838150;77;27397;-91
2021/09/12 09:10:50;;;;;;;8.43;6.28;;;;;;;25.24;53.98;97296.36;1834547;77;25880;-91
2021/09/12 09:13:37;;;;;;;9.65;6.70;;;;;;;25.44;53.62;97293.75;1833076;77;25794;-91
2021/09/12 09:16:12;;;;;;;8.30;6.30;;;;;;;25.64;53.06;97291.11;1840668;77;26435;-91
2021/09/12 09:18:43;;;;;;;9.00;6.33;;;;;;;25.77;52.87;97280.58;1834899;77;25683;-89
2021/09/12 09:21:35;;;;;;;8.53;6.20;;;;;;;25.96;52.36;97284.02;1840327;77;28248;-92
2021/09/12 09:24:25;;;;;;;9.00;6.03;;;;;;;26.14;51.82;97283.56;1811618;78;25665;-93
2021/09/12 09:27:04;;;;;;;11.83;6.67;;;;;;;26.35;51.73;97284.70;1802864;78;25501;-94
2021/09/12 09:29:34;;;;;;;7.30;6.45;;;;;;;26.49;51.34;97281.86;1823799;77;25779;-91
2021/09/12 09:32:13;;;;;;;8.93;6.33;;;;;;;26.50;51.08;97276.02;1830034;78;26323;-91
2021/09/12 09:34:42;;;;;;;7.92;6.72;;;;;;;26.68;50.82;97279.70;1830515;78;27272;-90
2021/09/12 09:37:18;;;;;;;7.72;6.30;;;;;;;26.78;50.47;97279.42;1830277;77;25892;-86
2021/09/12 09:39:55;;;;;;;7.95;6.53;;;;;;;26.98;50.18;97285.55;1830370;78;25739;-86
2021/09/12 09:42:45;;;;;;;9.95;5.92;;;;;;;27.16;49.50;97278.38;1828015;78;25789;-87
2021/09/12 09:45:24;;;;;;;8.68;5.70;;;;;;;27.31;49.17;97278.47;1810260;78;25683;-91
2021/09/12 09:47:52;;;;;;;6.53;5.33;;;;;;;27.45;48.72;97271.41;1814075;78;28181;-88
2021/09/12 09:50:24;;;;;;;9.33;5.47;;;;;;;27.48;48.98;97269.39;1826580;78;25822;-90
2021/09/12 09:52:53;;;;;;;7.25;5.33;;;;;;;27.56;48.88;97266.65;1806329;78;25733;-86
2021/09/12 09:55:24;;;;;;;7.35;5.50;;;;;;;27.67;48.64;97260.78;1830524;78;25916;-90
2021/09/12 09:57:54;;;;;;;6.60;5.37;;;;;;;27.83;47.99;97259.17;1830455;78;25817;-87
2021/09/12 10:00:24;;;;;;;6.25;5.65;;;;;;;27.95;47.54;97262.91;1830374;78;28136;-87
2021/09/12 10:02:51;;;;;;;7.08;5.25;;;;;;;28.04;47.43;97261.52;1807299;78;25752;-86
2021/09/12 10:05:18;;;;;;;7.92;5.58;;;;;;;28.09;47.15;97254.99;1830386;78;25999;-90
2021/09/12 10:07:44;;;;;;;6.95;5.12;;;;;;;28.10;46.63;97258.02;1830353;78;25593;-85
2021/09/12 10:10:14;;;;;;;7.47;5.35;;;;;;;28.07;46.86;97255.89;1830443;78;25873;-95
2021/09/12 10:13:00;;;;;;;8.80;5.35;;;;;;;28.07;46.40;97249.77;1830428;78;28197;-88
2021/09/12 10:15:34;;;;;;;9.70;5.58;;;;;;;28.07;46.11;97257.28;1828324;78;25694;-87
2021/09/12 10:18:01;;;;;;;9.08;5.42;;;;;;;28.04;46.20;97252.38;1830043;78;25681;-85
2021/09/12 10:20:30;;;;;;;10.32;5.12;;;;;;;28.06;45.83;97250.91;1830506;78;26652;-87
2021/09/12 10:23:07;;;;;;;8.10;5.37;;;;;;;28.08;45.83;97251.41;1830300;78;25833;-87
2021/09/12 10:25:50;;;;;;;8.93;5.40;;;;;;;28.10;45.49;97248.30;1823773;78;27388;-89
2021/09/12 10:28:33;;;;;;;7.30;5.03;;;;;;;28.05;45.37;97249.28;1829818;78;25751;-89
2021/09/12 10:31:20;;;;;;;10.55;6.03;;;;;;;27.98;45.74;97244.81;1830303;78;26407;-86
2021/09/12 10:34:03;;;;;;;7.03;5.40;;;;;;;27.88;45.88;97240.41;1830090;77;25715;-91
2021/09/12 10:36:30;;;;;;;6.15;5.55;;;;;;;27.94;45.63;97235.50;1830393;78;25791;-88
2021/09/12 10:39:00;;;;;;;6.58;5.85;;;;;;;27.94;45.17;97237.70;1830043;78;28412;-89
2021/09/12 10:41:27;;;;;;;8.50;5.78;;;;;;;27.57;44.67;97229.47;1822024;77;25746;-89
2021/09/12 10:43:54;;;;;;;6.40;5.80;;;;;;;27.47;45.38;97226.98;1817821;78;25687;-84
2021/09/12 10:46:23;;;;;;;6.47;5.42;;;;;;;27.48;45.45;97225.85;1819718;78;25823;-91
2021/09/12 10:49:04;;;;;;;8.80;5.40;;;;;;;27.51;45.74;97231.33;1830430;78;25660;-92
2021/09/12 10:51:31;;;;;;;6.33;5.50;;;;;;;27.49;46.16;97229.44;1817390;78;27362;-96
2021/09/12 10:54:00;;;;;;;9.90;6.22;;;;;;;27.45;45.78;97221.52;1821659;78;25709;-92
2021/09/12 10:56:34;;;;;;;8.50;6.17;;;;;;;27.48;45.99;97223.08;1830339;78;25683;-85
2021/09/12 10:59:10;;;;;;;9.53;5.70;;;;;;;27.56;45.70;97220.91;1830244;78;25747;-89
2021/09/12 11:01:46;;;;;;;8.45;5.92;;;;;;;27.58;45.26;97222.78;1830404;78;25723;-87
2021/09/12 11:04:17;;;;;;;7.12;5.55;;;;;;;27.56;45.07;97216.75;1830347;78;27356;-88
2021/09/12 11:06:49;;;;;;;6.40;5.40;;;;;;;27.53;44.82;97215.97;1818050;78;25774;-90
2021/09/12 11:09:20;;;;;;;6.72;5.58;;;;;;;27.48;44.74;97211.99;1821169;78;25727;-89
2021/09/12 11:11:49;;;;;;;7.80;5.47;;;;;;;27.48;44.37;97209.22;1818912;78;26416;-91
2021/09/12 11:14:18;;;;;;;9.63;6.05;;;;;;;27.48;44.34;97210.61;1819663;78;25756;-91
2021/09/12 11:16:45;;;;;;;8.45;5.12;;;;;;;27.49;44.81;97206.70;1830360;78;27543;-86
2021/09/12 11:19:12;;;;;;;7.95;5.75;;;;;;;27.45;44.31;97204.31;1830198;77;25803;-89
2021/09/12 11:21:49;;;;;;;6.47;4.83;;;;;;;27.46;44.39;97200.41;1807278;78;25815;-89
2021/09/12 11:24:21;;;;;;;8.43;5.70;;;;;;;27.45;44.58;97208.48;1814252;78;26375;-88
2021/09/12 11:27:03;;;;;;;7.08;5.78;;;;;;;27.25;44.36;97199.42;1805714;77;25741;-85
2021/09/12 11:29:35;;;;;;;;;;;;;;;27.08;44.42;97202.96;1843663;77;27234;-88
2021/09/12 11:32:17;;;;;;;6.00;5.42;;;;;;;26.87;44.08;97199.95;1807178;77;26508;-86